Time;durP1;ratioP1;P1;durP2;ratioP2;P2;SDS_P1;SDS_P2;PMS_P1;PMS_P2;Temp;Humidity;BMP_temperature;BMP_pressure;BME280_temperature;BME280_humidity;BME280_pressure;Samples;Min_cycle;Max_cycle;Signal;HPM_P1;HPM_P2
2022/10/04 00:01:50;;;;;;;1.40;0.52;;;11.60;82.00;;;;;;4994759;28;20175;-78
2022/10/04 00:04:32;;;;;;;0.50;0.50;;;11.70;81.90;;;;;;4999404;28;20181;-78
2022/10/04 00:07:07;;;;;;;0.60;0.60;;;11.60;82.10;;;;;;4996742;28;20205;-79
2022/10/04 00:09:44;;;;;;;0.50;0.50;;;11.60;81.90;;;;;;5002248;28;20291;-79
2022/10/04 00:12:34;;;;;;;0.65;0.65;;;11.50;82.20;;;;;;4998044;28;20200;-79
2022/10/04 00:15:05;;;;;;;0.65;0.63;;;11.60;81.90;;;;;;5001427;28;20249;-79
2022/10/04 00:17:34;;;;;;;0.70;0.70;;;11.60;81.70;;;;;;5002308;28;20178;-79
2022/10/04 00:20:01;;;;;;;0.52;0.52;;;11.50;81.90;;;;;;5050398;28;20205;-79
2022/10/04 00:22:33;;;;;;;0.45;0.45;;;11.60;81.70;;;;;;5072984;28;20190;-79
2022/10/04 00:25:08;;;;;;;0.40;0.40;;;11.50;81.90;;;;;;5073002;28;20183;-79
2022/10/04 00:27:36;;;;;;;1.30;0.68;;;11.50;81.80;;;;;;5072809;28;20628;-79
2022/10/04 00:30:01;;;;;;;0.50;0.50;;;11.50;81.60;;;;;;5072909;28;20267;-79
2022/10/04 00:32:38;;;;;;;0.60;0.60;;;11.50;81.30;;;;;;5074835;28;20191;-79
2022/10/04 00:35:23;;;;;;;0.40;0.40;;;11.50;81.30;;;;;;5082980;28;20191;-79
2022/10/04 00:38:16;;;;;;;0.40;0.40;;;11.60;81.00;;;;;;5085707;28;20182;-78
2022/10/04 00:40:54;;;;;;;0.40;0.40;;;11.70;80.70;;;;;;5081767;28;20163;-78
2022/10/04 00:43:36;;;;;;;0.50;0.50;;;11.60;80.80;;;;;;5075105;28;20175;-78
2022/10/04 00:46:11;;;;;;;0.45;0.45;;;11.60;80.90;;;;;;5075626;28;20270;-75
2022/10/04 00:48:48;;;;;;;3.65;0.60;;;11.50;81.00;;;;;;5073765;28;20167;-80
2022/10/04 00:51:41;;;;;;;0.60;0.60;;;11.50;80.90;;;;;;5077975;28;20205;-80
2022/10/04 00:54:29;;;;;;;0.50;0.50;;;11.50;81.00;;;;;;5074513;28;20208;-79
2022/10/04 00:57:00;;;;;;;0.40;0.40;;;11.30;81.40;;;;;;5075748;28;20223;-79
2022/10/04 00:59:49;;;;;;;3.83;0.50;;;11.30;81.60;;;;;;5079246;28;20183;-78
2022/10/04 01:02:29;;;;;;;0.30;0.30;;;11.40;81.20;;;;;;5077575;28;20190;-79
2022/10/04 01:05:01;;;;;;;0.40;0.40;;;11.40;81.00;;;;;;5074140;28;20184;-79
2022/10/04 01:07:49;;;;;;;1.65;0.40;;;11.40;81.10;;;;;;5083880;28;20208;-78
2022/10/04 01:10:31;;;;;;;0.65;0.45;;;11.30;81.20;;;;;;5078245;28;20168;-79
2022/10/04 01:13:09;;;;;;;0.85;0.50;;;11.20;81.20;;;;;;5080371;28;20179;-78
2022/10/04 01:15:49;;;;;;;2.15;0.40;;;11.20;81.40;;;;;;5081181;28;21311;-78
2022/10/04 01:18:28;;;;;;;0.50;0.50;;;11.20;81.50;;;;;;5075062;28;20183;-77
2022/10/04 01:21:26;;;;;;;0.30;0.30;;;11.20;81.40;;;;;;5071285;28;20210;-77
2022/10/04 01:23:58;;;;;;;0.60;0.60;;;11.20;81.30;;;;;;5067860;28;20199;-78
2022/10/04 01:26:30;;;;;;;0.50;0.50;;;11.10;81.40;;;;;;5071639;28;20188;-77
2022/10/04 01:28:59;;;;;;;0.40;0.40;;;11.10;81.50;;;;;;5068057;28;20241;-78
2022/10/04 01:31:30;;;;;;;0.57;0.57;;;11.10;81.20;;;;;;5072079;28;20224;-78
2022/10/04 01:33:56;;;;;;;1.65;0.40;;;11.10;81.20;;;;;;5076557;28;20193;-78
2022/10/04 01:36:22;;;;;;;0.50;0.50;;;11.10;81.10;;;;;;5079206;28;20226;-78
2022/10/04 01:38:50;;;;;;;0.85;0.85;;;11.10;81.00;;;;;;5081907;28;20248;-79
2022/10/04 01:41:28;;;;;;;0.40;0.40;;;11.00;81.00;;;;;;5081253;28;20176;-78
2022/10/04 01:43:59;;;;;;;0.40;0.38;;;11.00;81.20;;;;;;5082086;28;20183;-78
2022/10/04 01:46:32;;;;;;;0.43;0.43;;;10.90;81.20;;;;;;5076109;28;20190;-78
2022/10/04 01:49:05;;;;;;;1.35;0.32;;;10.90;81.00;;;;;;5069807;28;20187;-79
2022/10/04 01:51:35;;;;;;;0.30;0.30;;;10.90;81.20;;;;;;5079241;28;20183;-78
2022/10/04 01:54:09;;;;;;;0.47;0.47;;;10.80;81.40;;;;;;5085124;28;20250;-78
2022/10/04 01:56:49;;;;;;;0.50;0.50;;;10.80;81.40;;;;;;5083399;28;20206;-78
2022/10/04 01:59:23;;;;;;;0.50;0.50;;;10.80;81.30;;;;;;5074765;28;20238;-78
2022/10/04 02:02:16;;;;;;;0.70;0.60;;;10.80;81.30;;;;;;5074053;28;20205;-79
2022/10/04 02:04:43;;;;;;;0.30;0.30;;;10.60;81.70;;;;;;5073702;28;20251;-78
2022/10/04 02:07:14;;;;;;;0.22;0.22;;;10.70;81.70;;;;;;5078523;28;20181;-79
2022/10/04 02:09:44;;;;;;;0.40;0.40;;;10.60;81.80;;;;;;5080691;28;20170;-78
2022/10/04 02:12:15;;;;;;;0.70;0.40;;;10.70;81.40;;;;;;5078147;28;20214;-78
2022/10/04 02:14:51;;;;;;;0.40;0.40;;;10.70;81.90;;;;;;5070711;28;20175;-77
2022/10/04 02:17:19;;;;;;;0.30;0.30;;;10.60;82.10;;;;;;5073798;28;20212;-77
2022/10/04 02:19:46;;;;;;;0.40;0.40;;;10.60;82.50;;;;;;5073069;28;20243;-77
2022/10/04 02:22:11;;;;;;;0.50;0.50;;;10.60;82.40;;;;;;5076602;28;20239;-76
2022/10/04 02:24:43;;;;;;;0.65;0.45;;;10.70;82.10;;;;;;5072976;28;20184;-77
2022/10/04 02:27:10;;;;;;;0.65;0.50;;;10.70;82.30;;;;;;5081557;28;20232;-77
2022/10/04 02:29:36;;;;;;;0.40;0.40;;;10.60;82.60;;;;;;5077885;28;20179;-79
2022/10/04 02:34:49;;;;;;;0.40;0.40;;;10.70;82.40;;;;;;5079351;28;20190;-79
2022/10/04 02:37:15;;;;;;;0.40;0.40;;;10.70;82.40;;;;;;5078346;28;21414;-79
2022/10/04 02:39:48;;;;;;;0.95;0.32;;;10.70;82.80;;;;;;5073392;28;20264;-79
2022/10/04 02:42:26;;;;;;;0.75;0.40;;;10.70;82.50;;;;;;5072554;28;20191;-78
2022/10/04 02:45:21;;;;;;;0.68;0.57;;;10.60;82.90;;;;;;5072179;28;20187;-79
2022/10/04 02:47:54;;;;;;;0.40;0.40;;;10.60;83.20;;;;;;5026836;28;20256;-79
2022/10/04 02:50:34;;;;;;;0.50;0.50;;;10.60;83.30;;;;;;5027139;28;20202;-79
2022/10/04 02:53:21;;;;;;;0.43;0.43;;;10.60;83.60;;;;;;5023258;28;20253;-79
2022/10/04 02:55:48;;;;;;;0.88;0.63;;;10.60;83.40;;;;;;5027028;28;20223;-78
2022/10/04 02:58:18;;;;;;;2.05;0.47;;;10.60;83.30;;;;;;5029392;28;20197;-76
2022/10/04 03:00:47;;;;;;;0.50;0.50;;;10.60;83.40;;;;;;5031195;28;20220;-76
2022/10/04 03:03:36;;;;;;;0.50;0.50;;;10.60;83.40;;;;;;5030370;28;20259;-78
2022/10/04 03:06:12;;;;;;;0.40;0.40;;;10.60;83.60;;;;;;5025676;28;20189;-78
2022/10/04 03:08:44;;;;;;;0.50;0.50;;;10.60;83.90;;;;;;5023905;28;20176;-77
2022/10/04 03:11:12;;;;;;;0.40;0.40;;;10.50;84.00;;;;;;5018599;28;20231;-77
2022/10/04 03:13:45;;;;;;;0.55;0.55;;;10.50;83.90;;;;;;5035024;28;20189;-77
2022/10/04 03:16:12;;;;;;;0.30;0.30;;;10.50;84.10;;;;;;5015958;28;20220;-78
2022/10/04 03:18:38;;;;;;;0.55;0.55;;;10.50;84.10;;;;;;5032824;28;20193;-78
2022/10/04 03:21:07;;;;;;;0.60;0.60;;;10.50;84.30;;;;;;5030311;28;20274;-78
2022/10/04 03:23:34;;;;;;;0.38;0.38;;;10.50;84.20;;;;;;5014878;28;20219;-78
2022/10/04 03:26:08;;;;;;;0.90;0.43;;;10.40;84.20;;;;;;5071208;28;20199;-77
2022/10/04 03:28:36;;;;;;;0.50;0.50;;;10.40;83.90;;;;;;5074054;28;20265;-79
2022/10/04 03:31:02;;;;;;;0.40;0.40;;;10.50;83.60;;;;;;5081197;28;20254;-79
2022/10/04 03:33:29;;;;;;;0.45;0.45;;;10.50;83.60;;;;;;5060774;28;20707;-76
2022/10/04 03:35:57;;;;;;;0.65;0.65;;;10.40;84.20;;;;;;5050052;28;20657;-77
2022/10/04 03:38:25;;;;;;;0.40;0.40;;;10.40;84.20;;;;;;5051750;28;20188;-80
2022/10/04 03:40:57;;;;;;;0.75;0.55;;;10.30;84.40;;;;;;5051246;28;20284;-79
2022/10/04 03:43:30;;;;;;;0.43;0.43;;;10.20;84.70;;;;;;5052293;28;20201;-79
2022/10/04 03:45:57;;;;;;;0.57;0.57;;;10.30;84.40;;;;;;5050875;28;20263;-79
2022/10/04 03:48:49;;;;;;;2.38;0.40;;;10.30;84.30;;;;;;5053825;28;20192;-79
2022/10/04 03:51:25;;;;;;;0.60;0.60;;;10.30;84.60;;;;;;5039757;28;20198;-79
2022/10/04 03:53:56;;;;;;;0.55;0.40;;;10.20;85.00;;;;;;5041929;28;20244;-79
2022/10/04 03:56:40;;;;;;;0.52;0.52;;;10.20;84.70;;;;;;5040396;28;20227;-79
2022/10/04 03:59:06;;;;;;;0.40;0.40;;;10.30;84.40;;;;;;5040369;28;20187;-79
2022/10/04 04:01:42;;;;;;;0.60;0.60;;;10.30;84.50;;;;;;5042298;28;20234;-80
2022/10/04 04:04:46;;;;;;;0.40;0.40;;;10.30;84.40;;;;;;5041813;28;20234;-80
2022/10/04 04:07:18;;;;;;;0.52;0.40;;;10.40;83.90;;;;;;4947018;28;20193;-79
2022/10/04 04:09:47;;;;;;;0.60;0.60;;;10.40;83.90;;;;;;4965904;28;20293;-78
2022/10/04 04:12:19;;;;;;;1.23;0.45;;;10.40;83.80;;;;;;4966940;28;20190;-79
2022/10/04 04:14:48;;;;;;;0.50;0.50;;;10.30;84.30;;;;;;4964356;28;20219;-75
2022/10/04 04:17:32;;;;;;;0.50;0.50;;;10.30;84.40;;;;;;4958685;28;20774;-77
2022/10/04 04:20:00;;;;;;;0.50;0.50;;;10.40;83.70;;;;;;4960927;28;20182;-77
2022/10/04 04:22:30;;;;;;;0.68;0.68;;;10.40;84.00;;;;;;4960273;28;20199;-77
2022/10/04 04:24:59;;;;;;;0.60;0.60;;;10.40;83.70;;;;;;4962113;28;20198;-78
2022/10/04 04:27:25;;;;;;;14.15;0.77;;;10.30;84.30;;;;;;4966530;28;20197;-76
2022/10/04 04:29:52;;;;;;;2.15;0.65;;;10.40;83.80;;;;;;4988422;28;20193;-77
2022/10/04 04:32:27;;;;;;;0.60;0.60;;;10.40;83.80;;;;;;4989748;28;20799;-79
2022/10/04 04:34:57;;;;;;;0.80;0.80;;;10.40;83.70;;;;;;4967575;28;20216;-76
2022/10/04 04:37:23;;;;;;;0.60;0.60;;;10.40;83.70;;;;;;4983842;28;20229;-77
2022/10/04 04:39:53;;;;;;;1.65;0.77;;;10.30;84.00;;;;;;4993804;28;20659;-78
2022/10/04 04:42:33;;;;;;;0.63;0.63;;;10.30;84.10;;;;;;4988748;28;20178;-77
2022/10/04 04:45:13;;;;;;;3.15;1.00;;;10.30;83.80;;;;;;5051861;28;20187;-75
2022/10/04 04:47:46;;;;;;;0.88;0.60;;;10.30;83.90;;;;;;5048922;28;20225;-75
2022/10/04 04:50:34;;;;;;;0.93;0.93;;;10.20;84.20;;;;;;5047133;28;20295;-77
2022/10/04 04:53:17;;;;;;;0.73;0.73;;;10.20;83.90;;;;;;5051791;28;20194;-77
2022/10/04 04:56:05;;;;;;;0.80;0.80;;;10.30;83.80;;;;;;5046512;28;20211;-76
2022/10/04 04:58:41;;;;;;;0.93;0.85;;;10.40;83.20;;;;;;5046868;28;20211;-74
2022/10/04 05:01:51;;;;;;;0.80;0.80;;;10.40;83.30;;;;;;5043989;28;20193;-75
2022/10/04 05:04:20;;;;;;;0.73;0.73;;;10.40;83.20;;;;;;5024827;28;20214;-76
2022/10/04 05:07:04;;;;;;;1.95;0.63;;;10.50;82.90;;;;;;5025137;28;20192;-76
2022/10/04 05:09:34;;;;;;;0.60;0.60;;;10.40;83.40;;;;;;5030272;28;20278;-75
2022/10/04 05:12:06;;;;;;;0.60;0.60;;;10.20;83.90;;;;;;5022597;28;20200;-74
2022/10/04 05:14:37;;;;;;;0.80;0.80;;;10.30;83.70;;;;;;5009393;28;20708;-76
2022/10/04 05:17:02;;;;;;;0.95;0.95;;;10.40;83.50;;;;;;5030389;28;20246;-75
2022/10/04 05:19:32;;;;;;;0.60;0.60;;;10.40;83.30;;;;;;5030310;28;20223;-75
2022/10/04 05:22:05;;;;;;;1.50;0.93;;;10.50;83.20;;;;;;5006284;28;20203;-74
2022/10/04 05:24:35;;;;;;;0.57;0.57;;;10.50;83.20;;;;;;5025330;28;20200;-75
2022/10/04 05:27:25;;;;;;;0.90;0.90;;;10.50;83.30;;;;;;5022353;28;20237;-75
2022/10/04 05:29:59;;;;;;;1.10;1.10;;;10.60;83.10;;;;;;5027630;28;20194;-74
2022/10/04 05:32:28;;;;;;;0.88;0.88;;;10.70;82.80;;;;;;5025629;28;20199;-75
2022/10/04 05:34:54;;;;;;;3.30;0.80;;;10.80;82.80;;;;;;5023969;28;20192;-74
2022/10/04 05:37:51;;;;;;;0.70;0.70;;;10.80;82.80;;;;;;5026865;28;20227;-75
2022/10/04 05:40:46;;;;;;;1.15;0.77;;;10.70;82.80;;;;;;5045241;28;20188;-75
2022/10/04 05:43:58;;;;;;;0.80;0.80;;;10.80;82.70;;;;;;5043055;28;20183;-74
2022/10/04 05:46:27;;;;;;;0.68;0.68;;;10.70;83.00;;;;;;5047633;28;20206;-75
2022/10/04 05:49:06;;;;;;;0.85;0.85;;;10.70;83.10;;;;;;5028958;28;20592;-75
2022/10/04 05:51:46;;;;;;;0.60;0.60;;;10.70;83.20;;;;;;5044486;28;20183;-75
2022/10/04 05:54:12;;;;;;;2.10;0.73;;;10.70;83.20;;;;;;5046758;28;20225;-75
2022/10/04 05:57:14;;;;;;;1.33;0.80;;;10.80;83.00;;;;;;5050453;28;20797;-74
2022/10/04 06:00:00;;;;;;;0.75;0.70;;;10.90;82.60;;;;;;5048770;28;20180;-75
2022/10/04 06:02:40;;;;;;;0.80;0.80;;;11.00;82.30;;;;;;5044807;28;20225;-74
2022/10/04 06:05:18;;;;;;;0.90;0.90;;;11.10;82.10;;;;;;5048000;28;20182;-76
2022/10/04 06:07:56;;;;;;;1.48;0.75;;;11.20;82.20;;;;;;5045303;28;20197;-75
2022/10/04 06:10:40;;;;;;;2.05;0.70;;;11.20;82.30;;;;;;5045486;28;20192;-74
2022/10/04 06:13:32;;;;;;;1.27;0.90;;;11.30;82.10;;;;;;5049813;28;20186;-74
2022/10/04 06:16:21;;;;;;;0.95;0.73;;;11.30;82.10;;;;;;5007357;28;20217;-73
2022/10/04 06:18:55;;;;;;;0.80;0.80;;;11.20;82.20;;;;;;5012619;28;21845;-76
2022/10/04 06:21:24;;;;;;;1.08;0.98;;;11.30;82.30;;;;;;5005298;28;20198;-75
2022/10/04 06:23:56;;;;;;;0.77;0.77;;;11.20;81.80;;;;;;4990502;28;20190;-76
2022/10/04 06:26:29;;;;;;;1.08;1.08;;;11.30;81.90;;;;;;4990520;28;20247;-75
2022/10/04 06:29:00;;;;;;;0.65;0.65;;;11.50;81.60;;;;;;4987777;28;20204;-76
2022/10/04 06:31:40;;;;;;;2.40;0.80;;;11.50;81.50;;;;;;4987437;28;20235;-75
2022/10/04 06:34:06;;;;;;;3.53;0.70;;;11.60;81.30;;;;;;4989650;28;21079;-76
2022/10/04 06:36:53;;;;;;;1.65;1.00;;;11.70;81.40;;;;;;4989662;28;20376;-74
2022/10/04 06:39:30;;;;;;;1.15;0.63;;;11.80;81.10;;;;;;4988734;28;20197;-74
2022/10/04 06:42:18;;;;;;;3.15;0.80;;;12.00;81.00;;;;;;4989147;28;20189;-76
2022/10/04 06:45:16;;;;;;;0.90;0.90;;;12.10;80.60;;;;;;4989019;28;20486;-74
2022/10/04 06:47:59;;;;;;;0.80;0.80;;;12.20;80.30;;;;;;4989218;28;20201;-76
2022/10/04 06:50:47;;;;;;;0.70;0.70;;;12.30;79.70;;;;;;5003357;28;21159;-75
2022/10/04 06:53:41;;;;;;;1.02;0.90;;;12.30;79.70;;;;;;5029543;28;20200;-76
2022/10/04 06:56:41;;;;;;;0.70;0.70;;;12.30;79.40;;;;;;5049854;28;20227;-75
2022/10/04 06:59:25;;;;;;;0.75;0.75;;;12.30;79.50;;;;;;5056491;28;20600;-76
2022/10/04 07:02:02;;;;;;;0.80;0.80;;;12.20;79.10;;;;;;5049067;28;20195;-75
2022/10/04 07:04:44;;;;;;;0.65;0.65;;;12.30;79.00;;;;;;5055223;28;20184;-76
2022/10/04 07:10:16;;;;;;;0.60;0.60;;;12.50;78.50;;;;;;5047677;28;20215;-75
2022/10/04 07:12:47;;;;;;;0.68;0.68;;;12.60;78.10;;;;;;5047891;28;20184;-78
2022/10/04 07:15:21;;;;;;;0.80;0.80;;;12.70;78.10;;;;;;5053904;28;20187;-76
2022/10/04 07:17:48;;;;;;;0.70;0.70;;;12.80;77.70;;;;;;5046279;28;20188;-76
2022/10/04 07:20:23;;;;;;;0.85;0.85;;;12.70;77.20;;;;;;5047930;28;20179;-76
2022/10/04 07:22:59;;;;;;;2.67;0.80;;;12.80;77.10;;;;;;5052765;28;20683;-76
2022/10/04 07:25:30;;;;;;;0.75;0.75;;;12.80;76.70;;;;;;5045733;28;20183;-76
2022/10/04 07:30:55;;;;;;;0.80;0.80;;;13.00;76.50;;;;;;5047531;28;20236;-75
2022/10/04 07:33:23;;;;;;;1.60;0.70;;;13.00;75.60;;;;;;5053641;28;20179;-75
2022/10/04 07:36:07;;;;;;;0.80;0.80;;;13.10;75.80;;;;;;5054537;28;20260;-75
2022/10/04 07:38:38;;;;;;;0.82;0.80;;;13.00;75.10;;;;;;5052187;28;20182;-75
2022/10/04 07:41:28;;;;;;;0.65;0.60;;;13.10;75.60;;;;;;5048818;28;20194;-75
2022/10/04 07:43:58;;;;;;;0.77;0.77;;;13.20;75.70;;;;;;5050221;28;20176;-75
2022/10/04 07:46:46;;;;;;;0.63;0.63;;;13.30;75.30;;;;;;5047005;28;20249;-75
2022/10/04 07:49:17;;;;;;;0.82;0.82;;;13.30;74.20;;;;;;5052426;28;20192;-75
2022/10/04 07:51:57;;;;;;;0.70;0.70;;;13.40;74.80;;;;;;5045226;28;20195;-76
2022/10/04 07:54:37;;;;;;;1.20;0.75;;;13.40;73.40;;;;;;5048451;28;20184;-75
2022/10/04 07:57:34;;;;;;;0.70;0.70;;;13.50;74.40;;;;;;5050290;28;20222;-76
2022/10/04 08:00:21;;;;;;;0.63;0.63;;;13.60;73.60;;;;;;5047074;28;20199;-76
2022/10/04 08:03:14;;;;;;;0.82;0.82;;;13.50;72.80;;;;;;5046115;28;20264;-75
2022/10/04 08:06:10;;;;;;;0.80;0.80;;;13.50;72.40;;;;;;5052232;28;21001;-75
2022/10/04 08:08:54;;;;;;;1.00;0.80;;;13.50;73.00;;;;;;5050856;28;20194;-75
2022/10/04 08:11:57;;;;;;;0.63;0.63;;;13.30;72.70;;;;;;5051824;28;20180;-75
2022/10/04 08:15:13;;;;;;;0.70;0.70;;;13.40;73.50;;;;;;5050233;28;20190;-76
2022/10/04 08:17:59;;;;;;;1.30;0.73;;;13.40;72.90;;;;;;5015659;28;20216;-75
2022/10/04 08:20:40;;;;;;;1.00;0.70;;;13.40;72.60;;;;;;5017953;28;20188;-75
2022/10/04 08:23:19;;;;;;;0.88;0.88;;;13.50;72.40;;;;;;5014048;28;20208;-75
2022/10/04 08:26:02;;;;;;;0.50;0.50;;;13.60;72.50;;;;;;5013006;28;20386;-75
2022/10/04 08:31:26;;;;;;;0.60;0.60;;;13.70;71.50;;;;;;5012645;28;20203;-74
2022/10/04 08:34:27;;;;;;;0.65;0.65;;;13.70;71.50;;;;;;5014039;28;20184;-76
2022/10/04 08:37:02;;;;;;;0.50;0.50;;;13.80;72.00;;;;;;4947818;28;20230;-75
2022/10/04 08:39:58;;;;;;;0.55;0.55;;;14.00;71.70;;;;;;4949471;28;20673;-75
2022/10/04 08:42:46;;;;;;;0.70;0.70;;;14.30;71.70;;;;;;4947526;28;20682;-74
2022/10/04 08:45:42;;;;;;;0.57;0.57;;;14.60;70.90;;;;;;4948420;28;20264;-74
2022/10/04 08:48:30;;;;;;;1.40;0.60;;;14.70;70.10;;;;;;4962917;28;20200;-72
2022/10/04 08:51:33;;;;;;;0.70;0.70;;;15.00;69.70;;;;;;4969137;28;20609;-74
2022/10/04 08:54:28;;;;;;;0.60;0.60;;;15.10;69.60;;;;;;4977233;28;20256;-75
2022/10/04 08:57:33;;;;;;;0.65;0.65;;;15.00;69.50;;;;;;4977464;28;20231;-74
2022/10/04 09:00:14;;;;;;;0.60;0.60;;;15.20;70.10;;;;;;4964836;28;20822;-74
2022/10/04 09:03:07;;;;;;;0.88;0.88;;;15.80;69.30;;;;;;4982524;28;20601;-74
2022/10/04 09:05:38;;;;;;;0.52;0.52;;;16.50;67.30;;;;;;4980463;28;20861;-75
2022/10/04 09:08:29;;;;;;;0.65;0.65;;;17.00;66.80;;;;;;4981109;28;20273;-75
2022/10/04 09:11:37;;;;;;;1.42;0.90;;;17.90;64.40;;;;;;4981102;28;20288;-75
2022/10/04 09:14:47;;;;;;;1.65;1.10;;;18.70;63.30;;;;;;5020326;28;20192;-75
2022/10/04 09:17:36;;;;;;;2.08;0.88;;;19.10;61.00;;;;;;5020177;28;20228;-74
2022/10/04 09:20:21;;;;;;;0.60;0.60;;;19.20;62.00;;;;;;5018445;28;20223;-75
2022/10/04 09:23:39;;;;;;;0.70;0.70;;;19.00;61.00;;;;;;5022335;28;20180;-75
2022/10/04 09:26:19;;;;;;;0.75;0.75;;;18.70;61.80;;;;;;5005032;28;20265;-75
2022/10/04 09:29:31;;;;;;;0.55;0.55;;;18.80;62.20;;;;;;5020528;28;20190;-75
2022/10/04 09:32:02;;;;;;;0.50;0.50;;;19.20;62.40;;;;;;4961451;28;20657;-75
2022/10/04 09:34:50;;;;;;;0.60;0.60;;;19.90;60.00;;;;;;4960217;28;20194;-76
2022/10/04 09:38:18;;;;;;;0.70;0.70;;;20.30;59.00;;;;;;4974409;28;20222;-76
2022/10/04 09:41:08;;;;;;;0.70;0.70;;;21.00;58.00;;;;;;4943111;28;20201;-75
2022/10/04 09:43:46;;;;;;;0.65;0.65;;;21.60;57.40;;;;;;4942487;28;20700;-75
2022/10/04 09:46:36;;;;;;;2.47;0.52;;;22.20;56.60;;;;;;4941296;28;20314;-75
2022/10/04 09:49:12;;;;;;;0.77;0.77;;;22.80;54.90;;;;;;4926116;28;20223;-75
2022/10/04 09:52:00;;;;;;;0.43;0.43;;;23.10;55.30;;;;;;4939570;28;20194;-75
2022/10/04 09:54:48;;;;;;;0.57;0.57;;;23.60;54.90;;;;;;4905518;29;20597;-75
2022/10/04 09:57:43;;;;;;;0.40;0.40;;;23.80;52.60;;;;;;4904503;29;20228;-74
2022/10/04 10:00:13;;;;;;;0.63;0.63;;;23.70;53.40;;;;;;4888407;29;20207;-75
2022/10/04 10:03:07;;;;;;;0.70;0.70;;;24.00;55.80;;;;;;4888722;29;20196;-75
2022/10/04 10:06:09;;;;;;;0.50;0.50;;;24.20;53.10;;;;;;4846947;29;20740;-75
2022/10/04 10:08:47;;;;;;;0.60;0.60;;;24.50;54.90;;;;;;4853855;29;20196;-75
2022/10/04 10:14:38;;;;;;;0.85;0.85;;;23.90;55.70;;;;;;4901924;29;20873;-75
2022/10/04 10:17:15;;;;;;;0.60;0.60;;;23.70;55.70;;;;;;4886738;29;20239;-75
2022/10/04 10:20:12;;;;;;;0.50;0.50;;;23.70;55.30;;;;;;4888916;29;20572;-75
2022/10/04 10:23:12;;;;;;;0.55;0.55;;;24.00;55.70;;;;;;4902879;29;20291;-75
2022/10/04 10:25:49;;;;;;;0.70;0.70;;;23.90;53.20;;;;;;4886774;29;20204;-75
2022/10/04 10:28:53;;;;;;;1.77;0.80;;;23.50;55.10;;;;;;4905003;29;20704;-76
2022/10/04 10:31:27;;;;;;;1.00;1.00;;;22.90;53.70;;;;;;4937062;28;20185;-77
2022/10/04 10:34:07;;;;;;;0.60;0.60;;;22.20;56.50;;;;;;4986108;28;20197;-78
2022/10/04 10:37:07;;;;;;;0.80;0.80;;;22.30;55.90;;;;;;4988074;28;20228;-77
2022/10/04 10:40:11;;;;;;;0.80;0.80;;;22.30;57.00;;;;;;4983703;28;20181;-77
2022/10/04 10:42:41;;;;;;;0.80;0.80;;;22.20;57.30;;;;;;5012557;28;20194;-76
2022/10/04 10:45:16;;;;;;;0.88;0.88;;;22.00;57.50;;;;;;5042179;28;20260;-73
2022/10/04 10:47:58;;;;;;;0.93;0.93;;;21.70;57.00;;;;;;5028907;28;20587;-74
2022/10/04 10:50:30;;;;;;;1.10;1.10;;;21.40;57.40;;;;;;5037479;28;20190;-74
2022/10/04 10:53:32;;;;;;;1.42;1.10;;;21.00;57.80;;;;;;5040332;28;20200;-74
2022/10/04 10:56:34;;;;;;;0.90;0.90;;;20.80;58.20;;;;;;5044434;28;20256;-74
2022/10/04 10:59:09;;;;;;;1.00;1.00;;;20.50;57.80;;;;;;5039278;28;20191;-74
2022/10/04 11:02:05;;;;;;;0.68;0.68;;;20.30;60.10;;;;;;5039880;28;20190;-74
2022/10/04 11:04:53;;;;;;;0.80;0.80;;;20.10;58.80;;;;;;5044094;28;20611;-74
2022/10/04 11:07:45;;;;;;;1.00;1.00;;;19.90;59.20;;;;;;5042773;28;20341;-75
2022/10/04 11:10:50;;;;;;;0.70;0.70;;;19.80;60.20;;;;;;5048977;28;20183;-74
2022/10/04 11:13:25;;;;;;;3.28;0.80;;;19.70;60.00;;;;;;5048731;28;20191;-74
2022/10/04 11:16:09;;;;;;;0.73;0.73;;;19.60;60.50;;;;;;5048274;28;20270;-74
2022/10/04 11:19:06;;;;;;;0.75;0.75;;;19.50;60.60;;;;;;5050308;28;20584;-74
2022/10/04 11:21:56;;;;;;;1.00;1.00;;;19.50;60.30;;;;;;5052392;28;21022;-74
2022/10/04 11:24:43;;;;;;;0.80;0.80;;;19.50;61.10;;;;;;5051668;28;20180;-74
2022/10/04 11:27:23;;;;;;;0.73;0.60;;;19.60;59.90;;;;;;5049952;28;20265;-75
2022/10/04 11:30:25;;;;;;;0.90;0.90;;;19.90;61.70;;;;;;5052360;28;21040;-75
2022/10/04 11:33:09;;;;;;;0.88;0.88;;;20.40;58.60;;;;;;5052370;28;20210;-75
2022/10/04 11:36:11;;;;;;;0.68;0.68;;;20.90;58.00;;;;;;5050071;28;20179;-76
2022/10/04 11:39:00;;;;;;;0.77;0.77;;;21.50;59.70;;;;;;5048836;28;20547;-77
2022/10/04 11:42:17;;;;;;;0.90;0.90;;;22.30;56.00;;;;;;5046146;28;20183;-76
2022/10/04 11:45:04;;;;;;;0.75;0.75;;;22.80;55.70;;;;;;5017534;28;21026;-77
2022/10/04 11:47:34;;;;;;;1.23;1.13;;;22.70;54.90;;;;;;5003191;28;20625;-77
2022/10/04 11:49:59;;;;;;;5.40;1.08;;;22.30;56.70;;;;;;5010358;28;20252;-76
2022/10/04 11:52:48;;;;;;;1.15;1.10;;;22.10;55.90;;;;;;5011179;28;20185;-76
2022/10/04 11:55:23;;;;;;;0.80;0.80;;;21.90;57.80;;;;;;5015045;28;20196;-76
2022/10/04 11:57:57;;;;;;;2.75;1.20;;;21.30;56.50;;;;;;5011569;28;20239;-76
2022/10/04 12:00:25;;;;;;;0.70;0.70;;;20.90;57.20;;;;;;5016610;28;20318;-76
2022/10/04 12:03:08;;;;;;;0.85;0.85;;;20.50;57.40;;;;;;5016463;28;20200;-76
2022/10/04 12:06:12;;;;;;;0.90;0.90;;;20.30;58.60;;;;;;5015933;28;20203;-76
2022/10/04 12:08:50;;;;;;;0.93;0.93;;;20.10;58.60;;;;;;5018739;28;20275;-76
2022/10/04 12:14:46;;;;;;;0.90;0.90;;;19.60;59.80;;;;;;5020471;28;20227;-76
2022/10/04 12:17:27;;;;;;;0.80;0.80;;;19.40;60.10;;;;;;5051752;28;20236;-76
2022/10/04 12:20:17;;;;;;;0.80;0.80;;;19.60;59.90;;;;;;5046420;28;20191;-76
2022/10/04 12:23:01;;;;;;;0.80;0.80;;;19.80;60.80;;;;;;5049104;28;20198;-76
2022/10/04 12:26:06;;;;;;;0.80;0.80;;;19.70;58.50;;;;;;5050804;28;20191;-76
2022/10/04 12:28:50;;;;;;;0.65;0.65;;;19.80;58.50;;;;;;5027313;28;20202;-76
2022/10/04 12:31:22;;;;;;;0.70;0.70;;;19.80;59.40;;;;;;5024313;28;20216;-76
2022/10/04 12:33:48;;;;;;;0.70;0.70;;;19.90;59.00;;;;;;5024629;28;20179;-77
2022/10/04 12:36:54;;;;;;;0.80;0.80;;;20.20;58.60;;;;;;5032623;28;20262;-76
2022/10/04 12:39:23;;;;;;;0.82;0.82;;;20.50;58.50;;;;;;5028991;28;20279;-77
2022/10/04 12:42:10;;;;;;;1.08;1.00;;;20.50;57.70;;;;;;5027911;28;20779;-77
2022/10/04 12:44:57;;;;;;;1.05;0.95;;;20.30;57.50;;;;;;5028538;28;20246;-76
2022/10/04 12:47:53;;;;;;;0.80;0.80;;;20.00;58.00;;;;;;5022621;28;20618;-76
2022/10/04 12:50:30;;;;;;;0.90;0.90;;;19.60;58.90;;;;;;5026375;28;20572;-76
2022/10/04 12:53:05;;;;;;;1.10;1.10;;;19.20;58.40;;;;;;5031381;28;20270;-75
2022/10/04 12:55:43;;;;;;;0.82;0.82;;;19.10;59.30;;;;;;5030071;28;20253;-77
2022/10/04 12:58:53;;;;;;;0.90;0.90;;;19.00;59.60;;;;;;5025365;28;20200;-76
2022/10/04 13:01:38;;;;;;;1.00;1.00;;;19.00;60.20;;;;;;5022971;28;20195;-76
2022/10/04 13:04:13;;;;;;;0.85;0.85;;;18.90;59.70;;;;;;5024420;28;20200;-76
2022/10/04 13:07:07;;;;;;;0.80;0.80;;;19.10;59.50;;;;;;5021179;28;20168;-75
2022/10/04 13:09:52;;;;;;;0.90;0.90;;;19.50;59.70;;;;;;5021443;28;20216;-74
2022/10/04 13:12:57;;;;;;;0.70;0.70;;;19.90;59.00;;;;;;5015693;28;20192;-74
2022/10/04 13:15:23;;;;;;;0.90;0.90;;;20.30;57.90;;;;;;5019306;28;20305;-75
2022/10/04 13:18:18;;;;;;;0.98;0.98;;;20.70;57.20;;;;;;5052487;28;20218;-73
2022/10/04 13:21:04;;;;;;;1.05;0.75;;;21.10;57.00;;;;;;5050943;28;20244;-74
2022/10/04 13:23:51;;;;;;;0.90;0.90;;;21.50;56.20;;;;;;5052451;28;20187;-74
2022/10/04 13:26:45;;;;;;;0.75;0.75;;;21.80;56.30;;;;;;5051657;28;20187;-74
2022/10/04 13:29:45;;;;;;;1.23;0.98;;;22.00;55.10;;;;;;5047689;28;20644;-74
2022/10/04 13:32:27;;;;;;;1.05;1.05;;;21.90;54.20;;;;;;5043672;28;20191;-75
2022/10/04 13:35:12;;;;;;;0.80;0.80;;;21.80;56.60;;;;;;5044526;28;20222;-75
2022/10/04 13:38:08;;;;;;;1.08;1.08;;;21.70;54.60;;;;;;5045654;28;20227;-75
2022/10/04 13:40:45;;;;;;;1.20;1.20;;;21.60;57.00;;;;;;5040962;28;20618;-75
2022/10/04 13:43:28;;;;;;;1.90;1.08;;;21.40;56.80;;;;;;5046788;28;20197;-75
2022/10/04 13:46:51;;;;;;;1.15;1.15;;;21.10;57.00;;;;;;5048325;28;20282;-75
2022/10/04 13:49:29;;;;;;;1.05;1.05;;;20.80;56.20;;;;;;4935217;28;20260;-75
2022/10/04 13:58:38;;;;;;;1.73;1.10;;;20.80;56.90;;;;;;4950247;28;20294;-75
2022/10/04 14:01:31;;;;;;;1.30;1.30;;;20.90;57.00;;;;;;4884524;29;20672;-75
2022/10/04 14:04:21;;;;;;;1.08;1.08;;;20.90;58.30;;;;;;4881484;29;20288;-75
2022/10/04 14:07:06;;;;;;;1.20;1.20;;;20.70;57.30;;;;;;4885331;29;20201;-74
2022/10/04 14:09:59;;;;;;;2.05;1.40;;;20.50;57.60;;;;;;4858372;29;20202;-74
2022/10/04 14:12:33;;;;;;;2.33;1.02;;;20.10;57.90;;;;;;4848416;29;20278;-74
2022/10/04 14:15:26;;;;;;;1.58;1.30;;;19.80;59.30;;;;;;4847953;29;21998;-75
2022/10/04 14:18:13;;;;;;;2.00;1.42;;;19.60;58.90;;;;;;4847892;29;20343;-75
2022/10/04 14:20:44;;;;;;;1.27;1.27;;;19.30;58.90;;;;;;4846286;29;20202;-75
2022/10/04 14:23:22;;;;;;;1.38;1.38;;;19.10;59.20;;;;;;4849449;29;20195;-74
2022/10/04 14:26:06;;;;;;;1.48;1.48;;;18.90;60.30;;;;;;4910730;28;20221;-75